Terminal Aerodrome Forecast
Issued by NWS Huntsville, AL

Home | Current Version | Previous Version | Text Only | Print | Product List | Glossary On
Versions: 1 2 3 4 5 6 7 8 9 10 11 12
000
FTUS44 KHUN 252321
TAFHSV
TAF
KHSV 252321Z 2600/2624 VRB04KT P6SM SCT040 BKN120
      TEMPO 2609/2612 5SM BR
     FM261500 07005KT P6SM SCT035 BKN100
     FM261800 07008KT P6SM VCTS BKN035CB BKN100 PROB30 2618/2622 4SM
      -TSRA=

USA.gov is the U.S. government's official web portal to all federal, state and local government web resources and services.